Covell, Illinois
Current Conditions -  °F | °C
As of 2:56 PM on Friday 28 Nov 2014 (Local Time) from KBMI Reporting Station
Clear Clear  
Wind Chill: 26°   Ceiling: Unl
Heat Index: 36°   Visibility: 10mi
Dew Point: 31°   Wind: 17mph
Humidity: 82%   Direction: 180°S
Pressure: 29.97"   Gusts: NA
Location:  40.4664°N, 88.9822°W
Report Text: KBMI 282056Z 18015KT 10SM CLR 02/M01 A2997 RMK AO2 57029 T00221005 SLP168
Loading
Personal Weather Stations






























Interactive Weather Map New forecast layout! Learn more

10-Day Weather Forecast

Advertisements
Track Severe Weather on mobile